Airfield :
LOGIN :

Register | Disclaimer

   EN    FR    IT 

 










Legend :    VFR   Marginal VFR   IFR   Intensive IFR   Very Intensive IFR
Visi :
Ceiling :
>= 8 km
>= 3000ft
5 to 8 km
1000 to 3000 ft
1500m to 5 km
500 to 1000 ft
800 to 1500m
200 to 500 ft
< 800m
< 200 ft
Symbols :   Thunderstorms  Fog  Heavy snow  Heavy precipitations  Wind > 20 kt
SIGMETs :     Misc.  Thunderstorms  Icing  Turbulence  Mountain Waves  Volcanic Ashes






- Airport Elevation : 219 ft
- IATA code : DNR


LFRD - Dinard

CURRENT METAR :
  • 300830Z AUTO 19002KT CAVOK 12/11 Q1012 NOSIG

EXPIRED METARs :
  • 300800Z AUTO 22005KT CAVOK 11/10 Q1012 NOSIG
  • 300730Z AUTO 24005KT CAVOK 11/10 Q1012 NOSIG
  • 300700Z AUTO 20004KT CAVOK 10/10 Q1012 TEMPO 3000 BR
  • 300630Z AUTO 21005KT CAVOK 09/09 Q1012 TEMPO 3000 BR

TAF TAF LFRD
Valid from the 30 at 06:00 until the 01 at 06:00 UTC


300500Z 3006/0106 VRB05KT CAVOK
PROB40
TEMPO 3006/3008 3000 BR
BECMG 3009/3011 24010KT
BECMG 3017/3019 21015G25KT OVC012
TEMPO 3017/3024 3000 RA BKN006
PROB40
TEMPO 3019/0103 23018G30KT
BECMG 0104/0106 26010KT BKN015
ATIS : +33 2 99 16 81 50



MET'MAP, your aeronautical weather chart ! - Copyright ORBIFLY December 2007 - Disclaimer

ORBIFLY MET'MAP TEAM :

Programming & Development : Alexandra Zaïnal
Original concept : Baudouin d'Aumeries
Technical & hardware support : Manuel Goepfert
Assistance : Marc-Olivier Méhu




SOURCES & CREDITS :

   NOAA